sensor_id;sensor_type;location;lat;lon;timestamp;temperature;humidity
26182;DHT22;13927;51.534;11.866;2023-04-15T06:08:00;7.30;99.90
26182;DHT22;13927;51.534;11.866;2023-04-15T06:10:26;7.30;99.90
26182;DHT22;13927;51.534;11.866;2023-04-15T06:12:51;7.40;99.90
26182;DHT22;13927;51.534;11.866;2023-04-15T06:15:17;7.30;99.90
26182;DHT22;13927;51.534;11.866;2023-04-15T06:17:43;7.30;99.90
26182;DHT22;13927;51.534;11.866;2023-04-15T06:20:15;7.40;99.90
26182;DHT22;13927;51.534;11.866;2023-04-15T06:22:41;7.40;99.90
26182;DHT22;13927;51.534;11.866;2023-04-15T06:25:19;7.30;99.90
26182;DHT22;13927;51.534;11.866;2023-04-15T06:27:44;7.40;99.90
26182;DHT22;13927;51.534;11.866;2023-04-15T06:30:19;7.30;99.90
26182;DHT22;13927;51.534;11.866;2023-04-15T06:32:45;7.30;99.90
26182;DHT22;13927;51.534;11.866;2023-04-15T06:35:11;7.40;99.90
26182;DHT22;13927;51.534;11.866;2023-04-15T06:37:37;7.40;99.90
26182;DHT22;13927;51.534;11.866;2023-04-15T06:40:02;7.40;99.90
26182;DHT22;13927;51.534;11.866;2023-04-15T06:42:29;7.50;99.90
26182;DHT22;13927;51.534;11.866;2023-04-15T06:44:55;7.40;99.90
26182;DHT22;13927;51.534;11.866;2023-04-15T06:47:21;7.40;99.90
26182;DHT22;13927;51.534;11.866;2023-04-15T06:49:47;7.40;99.90
26182;DHT22;13927;51.534;11.866;2023-04-15T06:52:12;7.50;99.90
26182;DHT22;13927;51.534;11.866;2023-04-15T06:54:41;7.50;99.90
26182;DHT22;13927;51.534;11.866;2023-04-15T06:57:07;7.50;99.90
26182;DHT22;13927;51.534;11.866;2023-04-15T06:59:36;7.60;99.90
26182;DHT22;13927;51.534;11.866;2023-04-15T07:02:02;7.60;99.90
26182;DHT22;13927;51.534;11.866;2023-04-15T07:04:28;7.60;99.90
26182;DHT22;13927;51.534;11.866;2023-04-15T07:06:53;7.60;99.90
26182;DHT22;13927;51.534;11.866;2023-04-15T07:09:22;7.60;99.90
26182;DHT22;13927;51.534;11.866;2023-04-15T07:11:49;7.60;99.90
26182;DHT22;13927;51.534;11.866;2023-04-15T07:14:14;7.60;99.90
26182;DHT22;13927;51.534;11.866;2023-04-15T07:16:40;7.60;99.90
26182;DHT22;13927;51.534;11.866;2023-04-15T07:19:06;7.60;99.90
26182;DHT22;13927;51.534;11.866;2023-04-15T07:21:31;7.70;99.90
26182;DHT22;13927;51.534;11.866;2023-04-15T07:23:57;7.70;99.90
26182;DHT22;13927;51.534;11.866;2023-04-15T07:26:23;7.70;99.90
26182;DHT22;13927;51.534;11.866;2023-04-15T07:28:49;7.70;99.90
26182;DHT22;13927;51.534;11.866;2023-04-15T07:31:15;7.70;99.90
26182;DHT22;13927;51.534;11.866;2023-04-15T07:33:41;7.80;99.90
26182;DHT22;13927;51.534;11.866;2023-04-15T07:36:10;7.70;99.90
26182;DHT22;13927;51.534;11.866;2023-04-15T07:38:35;7.70;99.90
26182;DHT22;13927;51.534;11.866;2023-04-15T07:41:01;7.70;99.90
26182;DHT22;13927;51.534;11.866;2023-04-15T07:43:27;7.80;99.90
26182;DHT22;13927;51.534;11.866;2023-04-15T07:45:56;7.80;99.90
26182;DHT22;13927;51.534;11.866;2023-04-15T07:48:25;7.80;99.90
26182;DHT22;13927;51.534;11.866;2023-04-15T07:50:50;7.90;99.90
26182;DHT22;13927;51.534;11.866;2023-04-15T07:53:20;7.90;99.90
26182;DHT22;13927;51.534;11.866;2023-04-15T07:55:45;7.90;99.90
26182;DHT22;13927;51.534;11.866;2023-04-15T07:58:11;7.90;99.90
26182;DHT22;13927;51.534;11.866;2023-04-15T08:00:37;7.90;99.90
26182;DHT22;13927;51.534;11.866;2023-04-15T08:03:05;8.00;99.90
26182;DHT22;13927;51.534;11.866;2023-04-15T08:05:31;8.00;99.90
26182;DHT22;13927;51.534;11.866;2023-04-15T08:07:57;8.00;99.90
26182;DHT22;13927;51.534;11.866;2023-04-15T08:10:23;8.00;99.90
26182;DHT22;13927;51.534;11.866;2023-04-15T08:12:48;8.00;99.90
26182;DHT22;13927;51.534;11.866;2023-04-15T08:15:18;8.00;99.90
26182;DHT22;13927;51.534;11.866;2023-04-15T08:17:44;8.10;99.90
26182;DHT22;13927;51.534;11.866;2023-04-15T08:20:16;8.10;99.90
26182;DHT22;13927;51.534;11.866;2023-04-15T08:22:43;8.10;99.90
26182;DHT22;13927;51.534;11.866;2023-04-15T08:25:15;8.10;99.90
26182;DHT22;13927;51.534;11.866;2023-04-15T08:27:50;8.10;99.90
26182;DHT22;13927;51.534;11.866;2023-04-15T08:30:16;8.10;99.90
26182;DHT22;13927;51.534;11.866;2023-04-15T08:32:44;8.20;99.90
26182;DHT22;13927;51.534;11.866;2023-04-15T08:35:17;8.20;99.90
26182;DHT22;13927;51.534;11.866;2023-04-15T08:37:43;8.30;99.90
26182;DHT22;13927;51.534;11.866;2023-04-15T08:40:09;8.30;99.90
26182;DHT22;13927;51.534;11.866;2023-04-15T08:42:36;8.30;99.90
26182;DHT22;13927;51.534;11.866;2023-04-15T08:45:07;8.30;99.90
26182;DHT22;13927;51.534;11.866;2023-04-15T08:47:34;8.30;99.90
26182;DHT22;13927;51.534;11.866;2023-04-15T08:50:02;8.30;99.90
26182;DHT22;13927;51.534;11.866;2023-04-15T08:52:29;8.30;99.90
26182;DHT22;13927;51.534;11.866;2023-04-15T08:54:56;8.30;99.90
26182;DHT22;13927;51.534;11.866;2023-04-15T08:57:29;8.30;99.90
26182;DHT22;13927;51.534;11.866;2023-04-15T08:59:55;8.20;99.90
26182;DHT22;13927;51.534;11.866;2023-04-15T09:02:25;8.20;99.90
26182;DHT22;13927;51.534;11.866;2023-04-15T09:04:52;8.20;99.90
26182;DHT22;13927;51.534;11.866;2023-04-15T09:07:17;8.20;99.90
26182;DHT22;13927;51.534;11.866;2023-04-15T09:09:43;8.30;99.90
26182;DHT22;13927;51.534;11.866;2023-04-15T09:12:10;8.30;99.90
26182;DHT22;13927;51.534;11.866;2023-04-15T09:14:39;8.30;99.90
26182;DHT22;13927;51.534;11.866;2023-04-15T09:17:05;8.40;99.90
26182;DHT22;13927;51.534;11.866;2023-04-15T09:19:34;8.40;99.90
26182;DHT22;13927;51.534;11.866;2023-04-15T09:22:00;8.40;99.90
26182;DHT22;13927;51.534;11.866;2023-04-15T09:24:34;8.50;99.90
26182;DHT22;13927;51.534;11.866;2023-04-15T09:27:02;8.50;99.90
26182;DHT22;13927;51.534;11.866;2023-04-15T09:29:28;8.50;99.90
26182;DHT22;13927;51.534;11.866;2023-04-15T09:31:57;8.50;99.90
26182;DHT22;13927;51.534;11.866;2023-04-15T09:34:34;8.50;99.90
26182;DHT22;13927;51.534;11.866;2023-04-15T09:37:04;8.50;99.90
26182;DHT22;13927;51.534;11.866;2023-04-15T09:42:15;8.50;99.90
26182;DHT22;13927;51.534;11.866;2023-04-15T09:44:48;8.50;99.90
26182;DHT22;13927;51.534;11.866;2023-04-15T09:47:32;8.60;99.90
26182;DHT22;13927;51.534;11.866;2023-04-15T09:49:58;8.60;99.90
26182;DHT22;13927;51.534;11.866;2023-04-15T09:52:27;8.70;99.90
26182;DHT22;13927;51.534;11.866;2023-04-15T09:54:53;8.70;99.90
26182;DHT22;13927;51.534;11.866;2023-04-15T09:57:21;8.70;99.90
26182;DHT22;13927;51.534;11.866;2023-04-15T09:59:48;8.80;99.90
26182;DHT22;13927;51.534;11.866;2023-04-15T10:02:14;8.80;99.90
26182;DHT22;13927;51.534;11.866;2023-04-15T10:04:40;8.80;99.90
26182;DHT22;13927;51.534;11.866;2023-04-15T10:07:09;8.90;99.90
26182;DHT22;13927;51.534;11.866;2023-04-15T10:09:37;8.90;99.90
26182;DHT22;13927;51.534;11.866;2023-04-15T10:12:10;8.90;99.90
26182;DHT22;13927;51.534;11.866;2023-04-15T10:14:37;9.00;99.90
26182;DHT22;13927;51.534;11.866;2023-04-15T10:17:03;9.00;99.90
26182;DHT22;13927;51.534;11.866;2023-04-15T10:19:33;9.10;99.90
26182;DHT22;13927;51.534;11.866;2023-04-15T10:22:02;9.10;99.90
26182;DHT22;13927;51.534;11.866;2023-04-15T10:24:27;9.20;99.90
26182;DHT22;13927;51.534;11.866;2023-04-15T10:26:57;9.20;99.90
26182;DHT22;13927;51.534;11.866;2023-04-15T10:29:24;9.20;99.90
26182;DHT22;13927;51.534;11.866;2023-04-15T10:31:54;9.20;99.90
26182;DHT22;13927;51.534;11.866;2023-04-15T10:34:20;9.30;99.90
26182;DHT22;13927;51.534;11.866;2023-04-15T10:36:48;9.30;99.90
26182;DHT22;13927;51.534;11.866;2023-04-15T10:42:16;9.30;99.90
26182;DHT22;13927;51.534;11.866;2023-04-15T10:44:48;9.40;99.90
26182;DHT22;13927;51.534;11.866;2023-04-15T10:47:18;9.40;99.90
26182;DHT22;13927;51.534;11.866;2023-04-15T10:49:49;9.40;99.90
26182;DHT22;13927;51.534;11.866;2023-04-15T10:52:25;9.50;99.90
26182;DHT22;13927;51.534;11.866;2023-04-15T10:57:45;9.50;99.90
26182;DHT22;13927;51.534;11.866;2023-04-15T11:00:15;9.50;99.90
26182;DHT22;13927;51.534;11.866;2023-04-15T11:02:42;9.60;99.90
26182;DHT22;13927;51.534;11.866;2023-04-15T11:05:10;9.70;99.90
26182;DHT22;13927;51.534;11.866;2023-04-15T11:12:37;9.80;99.90
26182;DHT22;13927;51.534;11.866;2023-04-15T11:17:57;9.90;99.90
26182;DHT22;13927;51.534;11.866;2023-04-15T11:20:24;9.90;99.90
26182;DHT22;13927;51.534;11.866;2023-04-15T11:22:50;9.90;99.90
26182;DHT22;13927;51.534;11.866;2023-04-15T11:28:12;10.10;99.90
26182;DHT22;13927;51.534;11.866;2023-04-15T11:30:38;10.20;99.90
26182;DHT22;13927;51.534;11.866;2023-04-15T11:33:05;10.20;99.90
26182;DHT22;13927;51.534;11.866;2023-04-15T11:35:33;10.30;99.90
26182;DHT22;13927;51.534;11.866;2023-04-15T11:38:02;10.30;99.90
26182;DHT22;13927;51.534;11.866;2023-04-15T11:40:29;10.40;99.90
26182;DHT22;13927;51.534;11.866;2023-04-15T11:43:05;10.40;99.90
26182;DHT22;13927;51.534;11.866;2023-04-15T11:45:31;10.40;99.90
26182;DHT22;13927;51.534;11.866;2023-04-15T11:48:07;10.50;99.90
26182;DHT22;13927;51.534;11.866;2023-04-15T11:50:34;10.50;99.90
26182;DHT22;13927;51.534;11.866;2023-04-15T11:53:01;10.60;99.90
26182;DHT22;13927;51.534;11.866;2023-04-15T11:58:20;10.70;99.90
26182;DHT22;13927;51.534;11.866;2023-04-15T12:00:57;10.70;99.90
26182;DHT22;13927;51.534;11.866;2023-04-15T12:03:24;10.80;99.90
26182;DHT22;13927;51.534;11.866;2023-04-15T12:06:11;10.80;99.90
26182;DHT22;13927;51.534;11.866;2023-04-15T12:11:38;10.80;99.90
26182;DHT22;13927;51.534;11.866;2023-04-15T12:14:27;10.80;99.90
26182;DHT22;13927;51.534;11.866;2023-04-15T12:16:54;10.80;99.90
26182;DHT22;13927;51.534;11.866;2023-04-15T12:19:23;10.80;99.90
26182;DHT22;13927;51.534;11.866;2023-04-15T12:21:50;10.80;99.90
26182;DHT22;13927;51.534;11.866;2023-04-15T12:24:21;10.80;99.90
26182;DHT22;13927;51.534;11.866;2023-04-15T12:26:51;10.80;99.90
26182;DHT22;13927;51.534;11.866;2023-04-15T12:29:25;10.80;99.90
26182;DHT22;13927;51.534;11.866;2023-04-15T12:31:56;10.80;99.90
26182;DHT22;13927;51.534;11.866;2023-04-15T12:34:29;10.90;99.90
26182;DHT22;13927;51.534;11.866;2023-04-15T12:36:57;10.90;99.90
26182;DHT22;13927;51.534;11.866;2023-04-15T12:39:24;11.00;99.90
26182;DHT22;13927;51.534;11.866;2023-04-15T12:41:51;11.00;99.90
26182;DHT22;13927;51.534;11.866;2023-04-15T12:44:17;11.00;99.90
26182;DHT22;13927;51.534;11.866;2023-04-15T12:46:43;11.00;99.90
26182;DHT22;13927;51.534;11.866;2023-04-15T12:49:08;11.00;99.90
26182;DHT22;13927;51.534;11.866;2023-04-15T12:51:34;11.00;99.90
26182;DHT22;13927;51.534;11.866;2023-04-15T12:54:00;11.00;99.90
26182;DHT22;13927;51.534;11.866;2023-04-15T12:56:25;11.00;99.90
26182;DHT22;13927;51.534;11.866;2023-04-15T12:58:51;11.10;99.90
26182;DHT22;13927;51.534;11.866;2023-04-15T13:01:17;11.10;99.90
26182;DHT22;13927;51.534;11.866;2023-04-15T13:03:43;11.00;99.90
26182;DHT22;13927;51.534;11.866;2023-04-15T13:06:09;11.00;99.90
26182;DHT22;13927;51.534;11.866;2023-04-15T13:08:34;11.00;99.90
26182;DHT22;13927;51.534;11.866;2023-04-15T13:11:00;11.10;99.90
26182;DHT22;13927;51.534;11.866;2023-04-15T13:13:26;11.00;99.90
26182;DHT22;13927;51.534;11.866;2023-04-15T13:15:52;11.10;99.90
26182;DHT22;13927;51.534;11.866;2023-04-15T13:18:17;11.10;99.90
26182;DHT22;13927;51.534;11.866;2023-04-15T13:20:43;11.00;99.90
26182;DHT22;13927;51.534;11.866;2023-04-15T13:23:09;11.10;99.90
26182;DHT22;13927;51.534;11.866;2023-04-15T13:25:34;11.10;99.90
26182;DHT22;13927;51.534;11.866;2023-04-15T13:28:00;11.20;99.90
26182;DHT22;13927;51.534;11.866;2023-04-15T13:30:26;11.30;99.90
26182;DHT22;13927;51.534;11.866;2023-04-15T13:32:52;11.30;99.90
26182;DHT22;13927;51.534;11.866;2023-04-15T13:38:40;11.40;99.90
26182;DHT22;13927;51.534;11.866;2023-04-15T13:41:05;11.50;99.90
26182;DHT22;13927;51.534;11.866;2023-04-15T13:43:31;11.40;99.90
26182;DHT22;13927;51.534;11.866;2023-04-15T13:45:58;11.50;99.90
26182;DHT22;13927;51.534;11.866;2023-04-15T13:48:24;11.40;99.90
26182;DHT22;13927;51.534;11.866;2023-04-15T13:50:50;11.40;99.90
26182;DHT22;13927;51.534;11.866;2023-04-15T13:53:15;11.30;99.90
26182;DHT22;13927;51.534;11.866;2023-04-15T13:55:41;11.30;99.90
26182;DHT22;13927;51.534;11.866;2023-04-15T13:58:07;11.30;99.90
26182;DHT22;13927;51.534;11.866;2023-04-15T14:00:33;11.30;99.90
26182;DHT22;13927;51.534;11.866;2023-04-15T14:02:59;11.30;99.90
26182;DHT22;13927;51.534;11.866;2023-04-15T14:05:24;11.30;99.90
26182;DHT22;13927;51.534;11.866;2023-04-15T14:07:50;11.20;99.90
26182;DHT22;13927;51.534;11.866;2023-04-15T14:10:16;11.10;99.90
26182;DHT22;13927;51.534;11.866;2023-04-15T14:12:41;11.10;99.90
26182;DHT22;13927;51.534;11.866;2023-04-15T14:15:07;11.10;99.90
26182;DHT22;13927;51.534;11.866;2023-04-15T14:17:33;11.10;99.90
26182;DHT22;13927;51.534;11.866;2023-04-15T14:19:59;11.10;99.90
26182;DHT22;13927;51.534;11.866;2023-04-15T14:22:25;11.10;99.90
26182;DHT22;13927;51.534;11.866;2023-04-15T14:24:50;11.10;99.90
26182;DHT22;13927;51.534;11.866;2023-04-15T14:27:18;11.00;99.90
26182;DHT22;13927;51.534;11.866;2023-04-15T14:29:43;10.90;99.90
26182;DHT22;13927;51.534;11.866;2023-04-15T14:32:10;11.00;99.90
26182;DHT22;13927;51.534;11.866;2023-04-15T14:34:36;11.00;99.90
26182;DHT22;13927;51.534;11.866;2023-04-15T14:40:23;11.10;99.90
26182;DHT22;13927;51.534;11.866;2023-04-15T14:42:50;11.10;99.90
26182;DHT22;13927;51.534;11.866;2023-04-15T14:45:15;11.10;99.90
26182;DHT22;13927;51.534;11.866;2023-04-15T14:47:44;11.10;99.90
26182;DHT22;13927;51.534;11.866;2023-04-15T14:50:11;11.10;99.90
26182;DHT22;13927;51.534;11.866;2023-04-15T14:52:37;11.10;99.90
26182;DHT22;13927;51.534;11.866;2023-04-15T14:55:04;11.00;99.90
26182;DHT22;13927;51.534;11.866;2023-04-15T14:57:34;11.00;99.90
26182;DHT22;13927;51.534;11.866;2023-04-15T15:00:00;11.00;99.90
26182;DHT22;13927;51.534;11.866;2023-04-15T15:02:26;11.00;99.90
26182;DHT22;13927;51.534;11.866;2023-04-15T15:04:52;11.00;99.90
26182;DHT22;13927;51.534;11.866;2023-04-15T15:07:18;11.00;99.90
26182;DHT22;13927;51.534;11.866;2023-04-15T15:09:45;11.00;99.90
26182;DHT22;13927;51.534;11.866;2023-04-15T15:12:11;11.00;99.90
26182;DHT22;13927;51.534;11.866;2023-04-15T15:14:36;11.00;99.90
26182;DHT22;13927;51.534;11.866;2023-04-15T15:17:02;11.00;99.90
26182;DHT22;13927;51.534;11.866;2023-04-15T15:19:28;11.00;99.90
26182;DHT22;13927;51.534;11.866;2023-04-15T15:21:53;11.00;99.90
26182;DHT22;13927;51.534;11.866;2023-04-15T15:24:19;11.00;99.90
26182;DHT22;13927;51.534;11.866;2023-04-15T15:29:17;11.00;99.90
26182;DHT22;13927;51.534;11.866;2023-04-15T15:31:43;11.00;99.90
26182;DHT22;13927;51.534;11.866;2023-04-15T15:34:11;11.10;99.90
26182;DHT22;13927;51.534;11.866;2023-04-15T15:36:39;11.10;99.90
26182;DHT22;13927;51.534;11.866;2023-04-15T15:39:09;11.10;99.90
26182;DHT22;13927;51.534;11.866;2023-04-15T15:41:44;11.10;99.90
26182;DHT22;13927;51.534;11.866;2023-04-15T15:44:12;11.10;99.90
26182;DHT22;13927;51.534;11.866;2023-04-15T15:46:46;11.10;99.90
26182;DHT22;13927;51.534;11.866;2023-04-15T15:49:16;11.10;99.90
26182;DHT22;13927;51.534;11.866;2023-04-15T15:51:45;11.10;99.90
26182;DHT22;13927;51.534;11.866;2023-04-15T15:54:12;11.10;99.90
26182;DHT22;13927;51.534;11.866;2023-04-15T15:56:43;11.10;99.90
26182;DHT22;13927;51.534;11.866;2023-04-15T15:59:10;11.20;99.90
26182;DHT22;13927;51.534;11.866;2023-04-15T16:01:36;11.20;99.90
26182;DHT22;13927;51.534;11.866;2023-04-15T16:04:07;11.10;99.90
26182;DHT22;13927;51.534;11.866;2023-04-15T16:06:34;11.20;99.90
26182;DHT22;13927;51.534;11.866;2023-04-15T16:09:02;11.10;99.90
26182;DHT22;13927;51.534;11.866;2023-04-15T16:11:28;11.10;99.90
26182;DHT22;13927;51.534;11.866;2023-04-15T16:13:55;11.10;99.90
26182;DHT22;13927;51.534;11.866;2023-04-15T16:16:21;11.10;99.90
26182;DHT22;13927;51.534;11.866;2023-04-15T16:18:48;11.10;99.90
26182;DHT22;13927;51.534;11.866;2023-04-15T16:21:16;11.10;99.90
26182;DHT22;13927;51.534;11.866;2023-04-15T16:23:44;11.10;99.90
26182;DHT22;13927;51.534;11.866;2023-04-15T16:26:19;11.10;99.90
26182;DHT22;13927;51.534;11.866;2023-04-15T16:28:53;11.10;99.90
26182;DHT22;13927;51.534;11.866;2023-04-15T16:31:26;11.10;99.90
26182;DHT22;13927;51.534;11.866;2023-04-15T16:33:56;11.00;99.90
26182;DHT22;13927;51.534;11.866;2023-04-15T16:36:33;11.00;99.90
26182;DHT22;13927;51.534;11.866;2023-04-15T16:39:01;11.00;99.90
26182;DHT22;13927;51.534;11.866;2023-04-15T16:41:28;11.00;99.90
26182;DHT22;13927;51.534;11.866;2023-04-15T16:43:55;11.00;99.90
26182;DHT22;13927;51.534;11.866;2023-04-15T16:46:23;11.00;99.90
26182;DHT22;13927;51.534;11.866;2023-04-15T16:48:49;11.00;99.90
26182;DHT22;13927;51.534;11.866;2023-04-15T16:51:16;11.00;99.90
26182;DHT22;13927;51.534;11.866;2023-04-15T16:53:43;10.90;99.90
26182;DHT22;13927;51.534;11.866;2023-04-15T16:56:09;10.90;99.90
26182;DHT22;13927;51.534;11.866;2023-04-15T16:58:39;10.90;99.90
26182;DHT22;13927;51.534;11.866;2023-04-15T17:01:06;10.90;99.90
26182;DHT22;13927;51.534;11.866;2023-04-15T17:03:34;11.00;99.90
26182;DHT22;13927;51.534;11.866;2023-04-15T17:06:01;10.90;99.90
26182;DHT22;13927;51.534;11.866;2023-04-15T17:08:28;11.00;99.90
26182;DHT22;13927;51.534;11.866;2023-04-15T17:10:56;10.90;99.90
26182;DHT22;13927;51.534;11.866;2023-04-15T17:13:24;10.90;99.90
26182;DHT22;13927;51.534;11.866;2023-04-15T17:15:52;10.90;99.90
26182;DHT22;13927;51.534;11.866;2023-04-15T17:18:19;10.90;99.90
26182;DHT22;13927;51.534;11.866;2023-04-15T17:20:48;10.90;99.90
26182;DHT22;13927;51.534;11.866;2023-04-15T17:23:15;10.80;99.90
26182;DHT22;13927;51.534;11.866;2023-04-15T17:25:42;10.80;99.90
26182;DHT22;13927;51.534;11.866;2023-04-15T17:28:10;10.80;99.90
26182;DHT22;13927;51.534;11.866;2023-04-15T17:30:38;10.80;99.90
26182;DHT22;13927;51.534;11.866;2023-04-15T17:33:06;10.90;99.90
26182;DHT22;13927;51.534;11.866;2023-04-15T17:35:38;10.80;99.90
26182;DHT22;13927;51.534;11.866;2023-04-15T17:38:05;10.80;99.90
26182;DHT22;13927;51.534;11.866;2023-04-15T17:40:33;10.90;99.90
26182;DHT22;13927;51.534;11.866;2023-04-15T17:43:00;10.90;99.90
26182;DHT22;13927;51.534;11.866;2023-04-15T17:45:28;10.90;99.90
26182;DHT22;13927;51.534;11.866;2023-04-15T17:47:55;10.90;99.90
26182;DHT22;13927;51.534;11.866;2023-04-15T17:50:21;10.90;99.90
26182;DHT22;13927;51.534;11.866;2023-04-15T17:52:48;10.90;99.90
26182;DHT22;13927;51.534;11.866;2023-04-15T17:55:14;10.90;99.90
26182;DHT22;13927;51.534;11.866;2023-04-15T17:57:40;10.90;99.90
26182;DHT22;13927;51.534;11.866;2023-04-15T18:00:07;10.90;99.90
26182;DHT22;13927;51.534;11.866;2023-04-15T18:02:34;11.00;99.90
26182;DHT22;13927;51.534;11.866;2023-04-15T18:05:00;10.90;99.90
26182;DHT22;13927;51.534;11.866;2023-04-15T18:07:26;10.90;99.90
26182;DHT22;13927;51.534;11.866;2023-04-15T18:09:52;10.90;99.90
26182;DHT22;13927;51.534;11.866;2023-04-15T18:12:20;10.90;99.90
26182;DHT22;13927;51.534;11.866;2023-04-15T18:14:46;10.90;99.90
26182;DHT22;13927;51.534;11.866;2023-04-15T18:17:12;10.90;99.90
26182;DHT22;13927;51.534;11.866;2023-04-15T18:19:41;10.90;99.90
26182;DHT22;13927;51.534;11.866;2023-04-15T18:22:07;10.90;99.90
26182;DHT22;13927;51.534;11.866;2023-04-15T18:24:33;10.90;99.90
26182;DHT22;13927;51.534;11.866;2023-04-15T18:26:59;10.80;99.90
26182;DHT22;13927;51.534;11.866;2023-04-15T18:29:25;10.80;99.90
26182;DHT22;13927;51.534;11.866;2023-04-15T18:31:51;10.80;99.90
26182;DHT22;13927;51.534;11.866;2023-04-15T18:34:17;10.80;99.90
26182;DHT22;13927;51.534;11.866;2023-04-15T18:36:43;10.80;99.90
26182;DHT22;13927;51.534;11.866;2023-04-15T18:39:10;10.80;99.90
26182;DHT22;13927;51.534;11.866;2023-04-15T18:41:36;10.80;99.90
26182;DHT22;13927;51.534;11.866;2023-04-15T18:44:02;10.80;99.90
26182;DHT22;13927;51.534;11.866;2023-04-15T18:46:27;10.80;99.90
26182;DHT22;13927;51.534;11.866;2023-04-15T18:48:53;10.80;99.90
26182;DHT22;13927;51.534;11.866;2023-04-15T18:51:19;10.90;99.90
26182;DHT22;13927;51.534;11.866;2023-04-15T18:53:45;10.90;99.90
26182;DHT22;13927;51.534;11.866;2023-04-15T18:56:11;10.80;99.90
26182;DHT22;13927;51.534;11.866;2023-04-15T18:58:37;10.80;99.90
26182;DHT22;13927;51.534;11.866;2023-04-15T19:01:03;10.80;99.90
26182;DHT22;13927;51.534;11.866;2023-04-15T19:03:28;10.80;99.90
26182;DHT22;13927;51.534;11.866;2023-04-15T19:05:54;10.70;99.90
26182;DHT22;13927;51.534;11.866;2023-04-15T19:08:20;10.70;99.90
26182;DHT22;13927;51.534;11.866;2023-04-15T19:10:46;10.70;99.90
26182;DHT22;13927;51.534;11.866;2023-04-15T19:13:12;10.70;99.90
26182;DHT22;13927;51.534;11.866;2023-04-15T19:15:37;10.70;99.90
26182;DHT22;13927;51.534;11.866;2023-04-15T19:18:03;10.70;99.90
26182;DHT22;13927;51.534;11.866;2023-04-15T19:20:37;10.70;99.90
26182;DHT22;13927;51.534;11.866;2023-04-15T19:23:03;10.70;99.90
26182;DHT22;13927;51.534;11.866;2023-04-15T19:25:32;10.70;99.90
26182;DHT22;13927;51.534;11.866;2023-04-15T19:27:58;10.70;99.90
26182;DHT22;13927;51.534;11.866;2023-04-15T19:30:24;10.80;99.90
26182;DHT22;13927;51.534;11.866;2023-04-15T19:32:50;10.80;99.90
26182;DHT22;13927;51.534;11.866;2023-04-15T19:35:16;10.80;99.90
26182;DHT22;13927;51.534;11.866;2023-04-15T19:37:41;10.80;99.90
26182;DHT22;13927;51.534;11.866;2023-04-15T19:40:08;10.80;99.90
26182;DHT22;13927;51.534;11.866;2023-04-15T19:42:34;10.80;99.90
26182;DHT22;13927;51.534;11.866;2023-04-15T19:45:00;10.80;99.90
26182;DHT22;13927;51.534;11.866;2023-04-15T19:47:26;10.80;99.90
26182;DHT22;13927;51.534;11.866;2023-04-15T19:49:52;10.80;99.90
26182;DHT22;13927;51.534;11.866;2023-04-15T19:52:18;10.80;99.90
26182;DHT22;13927;51.534;11.866;2023-04-15T19:54:43;10.80;99.90
26182;DHT22;13927;51.534;11.866;2023-04-15T19:57:09;10.70;99.90
26182;DHT22;13927;51.534;11.866;2023-04-15T19:59:35;10.80;99.90
26182;DHT22;13927;51.534;11.866;2023-04-15T20:02:01;10.70;99.90
26182;DHT22;13927;51.534;11.866;2023-04-15T20:04:27;10.70;99.90
26182;DHT22;13927;51.534;11.866;2023-04-15T20:06:53;10.70;99.90
26182;DHT22;13927;51.534;11.866;2023-04-15T20:09:19;10.60;99.90
26182;DHT22;13927;51.534;11.866;2023-04-15T20:11:45;10.60;99.90
26182;DHT22;13927;51.534;11.866;2023-04-15T20:14:11;10.50;99.90
26182;DHT22;13927;51.534;11.866;2023-04-15T20:16:37;10.50;99.90
26182;DHT22;13927;51.534;11.866;2023-04-15T20:19:03;10.50;99.90
26182;DHT22;13927;51.534;11.866;2023-04-15T20:21:35;10.50;99.90
26182;DHT22;13927;51.534;11.866;2023-04-15T20:24:01;10.50;99.90
26182;DHT22;13927;51.534;11.866;2023-04-15T20:26:27;10.40;99.90
26182;DHT22;13927;51.534;11.866;2023-04-15T20:28:54;10.40;99.90
26182;DHT22;13927;51.534;11.866;2023-04-15T20:31:20;10.40;99.90
26182;DHT22;13927;51.534;11.866;2023-04-15T20:33:46;10.40;99.90
26182;DHT22;13927;51.534;11.866;2023-04-15T20:36:12;10.40;99.90
26182;DHT22;13927;51.534;11.866;2023-04-15T20:38:37;10.40;99.90
26182;DHT22;13927;51.534;11.866;2023-04-15T20:41:03;10.40;99.90
26182;DHT22;13927;51.534;11.866;2023-04-15T20:43:29;10.40;99.90
26182;DHT22;13927;51.534;11.866;2023-04-15T20:45:55;10.30;99.90
26182;DHT22;13927;51.534;11.866;2023-04-15T20:48:21;10.40;99.90
26182;DHT22;13927;51.534;11.866;2023-04-15T20:50:47;10.30;99.90
26182;DHT22;13927;51.534;11.866;2023-04-15T20:53:13;10.30;99.90
26182;DHT22;13927;51.534;11.866;2023-04-15T20:55:39;10.30;99.90
26182;DHT22;13927;51.534;11.866;2023-04-15T20:58:05;10.30;99.90
26182;DHT22;13927;51.534;11.866;2023-04-15T21:00:31;10.30;99.90
26182;DHT22;13927;51.534;11.866;2023-04-15T21:02:57;10.30;99.90
